createdAt,value
2022-09-28T00:01:14.465Z,-144.00
2022-09-28T00:06:21.617Z,-108.00
2022-09-28T00:11:28.806Z,-144.00
2022-09-28T00:16:36.075Z,-108.00
2022-09-28T00:21:43.212Z,-144.00
2022-09-28T00:26:50.388Z,-108.00
2022-09-28T00:31:57.637Z,-144.00
2022-09-28T00:37:05.012Z,-144.00
2022-09-28T00:42:12.223Z,-144.00
2022-09-28T00:47:19.455Z,-144.00
2022-09-28T00:52:26.844Z,-144.00
2022-09-28T00:57:34.002Z,-144.00
2022-09-28T01:02:41.270Z,-144.00
2022-09-28T01:07:49.499Z,-144.00
2022-09-28T01:12:56.742Z,-144.00
2022-09-28T01:18:03.921Z,-144.00
2022-09-28T01:23:11.139Z,-144.00
2022-09-28T01:28:18.388Z,-144.00
2022-09-28T01:33:25.566Z,-144.00
2022-09-28T01:38:32.794Z,-144.00
2022-09-28T01:43:44.581Z,-144.00
2022-09-28T01:48:51.789Z,-144.00
2022-09-28T01:53:59.009Z,-144.00
2022-09-28T01:59:06.167Z,-144.00
2022-09-28T02:04:13.400Z,-144.00
2022-09-28T02:09:20.700Z,-108.00
2022-09-28T02:14:27.910Z,-144.00
2022-09-28T02:19:35.173Z,-108.00
2022-09-28T02:24:42.450Z,-108.00
2022-09-28T02:29:49.656Z,-144.00
2022-09-28T02:34:56.839Z,-144.00
2022-09-28T02:40:04.302Z,-72.00
2022-09-28T02:45:11.448Z,-108.00
2022-09-28T02:50:18.624Z,-144.00
2022-09-28T02:55:25.888Z,-108.00
2022-09-28T03:00:33.155Z,-144.00
2022-09-28T03:05:40.307Z,-108.00
2022-09-28T03:10:47.583Z,-144.00
2022-09-28T03:15:54.713Z,-144.00
2022-09-28T03:21:01.881Z,-144.00
2022-09-28T03:26:09.045Z,-108.00
2022-09-28T03:31:16.241Z,-144.00
2022-09-28T03:36:23.383Z,-144.00
2022-09-28T03:41:30.654Z,-144.00
2022-09-28T03:46:37.835Z,-144.00
2022-09-28T03:51:45.016Z,-144.00
2022-09-28T03:56:52.282Z,-144.00
2022-09-28T04:01:59.611Z,-108.00
2022-09-28T04:07:06.814Z,-144.00
2022-09-28T04:12:14.077Z,-144.00
2022-09-28T04:17:21.297Z,-144.00
2022-09-28T04:22:28.445Z,-144.00
2022-09-28T04:27:35.664Z,-144.00
2022-09-28T04:32:42.866Z,-144.00
2022-09-28T04:37:50.093Z,-144.00
2022-09-28T04:42:57.380Z,-144.00
2022-09-28T04:48:04.635Z,-108.00
2022-09-28T04:53:11.815Z,-108.00
2022-09-28T04:58:19.021Z,-108.00
2022-09-28T05:03:26.181Z,-144.00
2022-09-28T05:08:33.383Z,-108.00
2022-09-28T05:13:40.577Z,-144.00
2022-09-28T05:18:47.795Z,-144.00
2022-09-28T05:23:55.004Z,-144.00
2022-09-28T05:29:02.231Z,-144.00
2022-09-28T05:34:09.442Z,-144.00
2022-09-28T05:39:16.733Z,-108.00
2022-09-28T05:44:23.854Z,-108.00
2022-09-28T05:49:31.084Z,-144.00
2022-09-28T05:54:38.301Z,-108.00
2022-09-28T05:59:45.555Z,-108.00
2022-09-28T06:04:52.739Z,-108.00
2022-09-28T06:09:59.994Z,-108.00
2022-09-28T06:15:07.247Z,-144.00
2022-09-28T06:20:14.451Z,-108.00
2022-09-28T06:25:21.602Z,-72.00
2022-09-28T06:30:28.938Z,-72.00
2022-09-28T06:35:35.952Z,-108.00
2022-09-28T06:40:43.203Z,-108.00
2022-09-28T06:45:50.446Z,-72.00
2022-09-28T06:50:57.512Z,-108.00
2022-09-28T06:56:04.736Z,-108.00
2022-09-28T07:01:12.061Z,-72.00
2022-09-28T07:06:19.073Z,-108.00
2022-09-28T07:11:26.308Z,-72.00
2022-09-28T07:16:59.461Z,4752.00
2022-09-28T07:21:40.862Z,4212.00
2022-09-28T07:26:48.114Z,4032.00
2022-09-28T07:31:55.338Z,5112.00
2022-09-28T07:37:02.604Z,5364.00
2022-09-28T07:42:09.815Z,5796.00
2022-09-28T07:47:17.063Z,5904.00
2022-09-28T07:52:24.248Z,5868.00
2022-09-28T07:57:31.453Z,6408.00
2022-09-28T08:02:38.730Z,8064.00
2022-09-28T08:07:45.921Z,7272.00
2022-09-28T08:12:53.172Z,7452.00
2022-09-28T08:18:02.704Z,8496.00
2022-09-28T08:23:07.534Z,7020.00
2022-09-28T08:28:14.682Z,8460.00
2022-09-28T08:33:21.963Z,9180.00
2022-09-28T08:38:29.121Z,9576.00
2022-09-28T08:43:36.286Z,10656.00
2022-09-28T08:48:45.713Z,11232.00
2022-09-28T08:53:50.663Z,10764.00
2022-09-28T08:58:57.843Z,10728.00
2022-09-28T09:04:05.025Z,11628.00
2022-09-28T09:09:12.327Z,12348.00
2022-09-28T09:14:19.515Z,12960.00
2022-09-28T09:19:26.742Z,11196.00
2022-09-28T09:24:33.879Z,11160.00
2022-09-28T09:29:41.121Z,11016.00
2022-09-28T09:34:48.283Z,12240.00
2022-09-28T09:39:55.412Z,11628.00
2022-09-28T09:45:02.641Z,11448.00
2022-09-28T09:50:09.971Z,11052.00
2022-09-28T09:55:17.051Z,11556.00
2022-09-28T10:00:24.286Z,11448.00
2022-09-28T10:05:31.493Z,13680.00
2022-09-28T10:10:38.732Z,13572.00
2022-09-28T10:15:45.976Z,13032.00
2022-09-28T10:20:53.218Z,14364.00
2022-09-28T10:26:00.387Z,13392.00
2022-09-28T10:36:14.922Z,15804.00
2022-09-28T10:41:22.129Z,11844.00
2022-09-28T10:46:29.365Z,12528.00
2022-09-28T10:51:36.544Z,15624.00
2022-09-28T10:56:44.743Z,16092.00
2022-09-28T11:01:51.985Z,14220.00
2022-09-28T11:12:06.410Z,13932.00
2022-09-28T11:17:13.664Z,16920.00
2022-09-28T11:22:20.916Z,16308.00
2022-09-28T11:27:28.128Z,14508.00
2022-09-28T11:32:35.478Z,13824.00
2022-09-28T11:37:42.795Z,13860.00
2022-09-28T11:42:49.877Z,14688.00
2022-09-28T11:47:57.045Z,16740.00
2022-09-28T11:53:04.321Z,17928.00
2022-09-28T11:58:11.510Z,16812.00
2022-09-28T12:03:18.927Z,16524.00
2022-09-28T12:08:25.951Z,17244.00
2022-09-28T12:13:33.123Z,16128.00
2022-09-28T12:18:40.354Z,17136.00
2022-09-28T12:23:47.623Z,16344.00
2022-09-28T12:28:54.852Z,16740.00
2022-09-28T12:34:02.053Z,16848.00
2022-09-28T12:39:19.136Z,19152.00
2022-09-28T12:44:16.573Z,17172.00
2022-09-28T12:50:13.893Z,14976.00
2022-09-28T12:54:30.945Z,17316.00
2022-09-28T12:59:38.184Z,19764.00
2022-09-28T13:04:45.363Z,18864.00
2022-09-28T13:09:52.596Z,17388.00
2022-09-28T13:14:59.779Z,15876.00
2022-09-28T13:20:06.988Z,16740.00
2022-09-28T13:25:14.172Z,14940.00
2022-09-28T13:30:21.399Z,13500.00
2022-09-28T13:35:28.613Z,14976.00
2022-09-28T13:40:36.020Z,16236.00
2022-09-28T13:45:43.222Z,15408.00
2022-09-28T13:50:50.431Z,12996.00
2022-09-28T13:55:57.651Z,9756.00
2022-09-28T14:01:04.975Z,11880.00
2022-09-28T14:06:12.102Z,15156.00
2022-09-28T14:11:19.304Z,14544.00
2022-09-28T14:16:26.961Z,15660.00
2022-09-28T14:21:34.171Z,14148.00
2022-09-28T14:26:41.463Z,15264.00
2022-09-28T14:31:48.676Z,13752.00
2022-09-28T14:36:55.938Z,12780.00
2022-09-28T14:42:03.251Z,12060.00
2022-09-28T14:47:10.521Z,10332.00
2022-09-28T14:52:17.745Z,9864.00
2022-09-28T14:57:25.056Z,10116.00
2022-09-28T15:02:32.335Z,6984.00
2022-09-28T15:07:39.550Z,6624.00
2022-09-28T15:12:46.851Z,8784.00
2022-09-28T15:17:54.041Z,7200.00
2022-09-28T15:23:01.247Z,7200.00
2022-09-28T15:28:08.478Z,6012.00
2022-09-28T15:33:17.262Z,7092.00
2022-09-28T15:38:25.696Z,5472.00
2022-09-28T15:43:32.974Z,5220.00
2022-09-28T15:48:40.132Z,5868.00
2022-09-28T15:53:47.431Z,5868.00
2022-09-28T15:58:54.678Z,4032.00
2022-09-28T16:04:01.908Z,3348.00
2022-09-28T16:09:09.500Z,3492.00
2022-09-28T16:14:16.388Z,2988.00
2022-09-28T16:19:23.567Z,3816.00
2022-09-28T16:24:30.815Z,2304.00
2022-09-28T16:29:38.108Z,1764.00
2022-09-28T16:34:45.270Z,1440.00
2022-09-28T16:39:52.503Z,1152.00
2022-09-28T16:44:59.750Z,540.00
2022-09-28T16:50:06.949Z,504.00
2022-09-28T16:55:39.077Z,252.00
2022-09-28T17:00:21.389Z,144.00
2022-09-28T17:05:28.577Z,36.00
2022-09-28T17:10:55.732Z,0.00
2022-09-28T17:15:43.081Z,-72.00
2022-09-28T17:20:50.202Z,-108.00
2022-09-28T17:25:57.417Z,-144.00
2022-09-28T17:31:04.783Z,-144.00
2022-09-28T17:36:11.856Z,-108.00
2022-09-28T17:41:20.651Z,-144.00
2022-09-28T17:46:26.389Z,-144.00
2022-09-28T17:51:33.479Z,-72.00
2022-09-28T17:56:40.624Z,7704.00
2022-09-28T18:01:47.891Z,7524.00
2022-09-28T18:06:54.951Z,7488.00
2022-09-28T18:12:02.209Z,7560.00
2022-09-28T18:17:09.475Z,7164.00
2022-09-28T18:22:16.629Z,7452.00
2022-09-28T18:27:23.876Z,7128.00
2022-09-28T18:32:31.102Z,7524.00
2022-09-28T18:37:38.363Z,7524.00
2022-09-28T18:42:45.587Z,7524.00
2022-09-28T18:47:52.861Z,7452.00
2022-09-28T18:53:00.043Z,7452.00
2022-09-28T18:58:09.171Z,7452.00
2022-09-28T19:03:16.524Z,6984.00
2022-09-28T19:08:27.560Z,6912.00
2022-09-28T19:13:30.800Z,6912.00
2022-09-28T19:18:37.991Z,7056.00
2022-09-28T19:23:48.906Z,7056.00
2022-09-28T19:28:52.600Z,7128.00
2022-09-28T19:33:59.827Z,7128.00
2022-09-28T19:39:07.311Z,7164.00
2022-09-28T19:44:14.552Z,6948.00
2022-09-28T19:49:21.833Z,7380.00
2022-09-28T19:54:33.141Z,7164.00
2022-09-28T19:59:36.323Z,7236.00
2022-09-28T20:04:43.535Z,7272.00
2022-09-28T20:09:50.651Z,7272.00
2022-09-28T20:14:57.807Z,7236.00
2022-09-28T20:20:05.067Z,7200.00
2022-09-28T20:25:12.246Z,7128.00
2022-09-28T20:30:19.463Z,7164.00
2022-09-28T20:35:32.922Z,7200.00
2022-09-28T20:40:34.347Z,7200.00
2022-09-28T20:45:41.485Z,6732.00
2022-09-28T20:50:48.743Z,6696.00
2022-09-28T20:55:56.402Z,6660.00
2022-09-28T21:01:03.645Z,6624.00
2022-09-28T21:06:12.355Z,6696.00
2022-09-28T21:11:18.017Z,6876.00
2022-09-28T21:16:25.217Z,6552.00
2022-09-28T21:21:32.442Z,6696.00
2022-09-28T21:26:39.623Z,6660.00
2022-09-28T21:31:46.875Z,6624.00
2022-09-28T21:36:54.088Z,6840.00
2022-09-28T21:42:01.259Z,6984.00
2022-09-28T21:47:08.429Z,6804.00
2022-09-28T21:52:15.698Z,6696.00
2022-09-28T21:57:22.867Z,6696.00
2022-09-28T22:02:30.165Z,6912.00
2022-09-28T22:07:37.409Z,7092.00
2022-09-28T22:12:44.587Z,7020.00
2022-09-28T22:17:51.909Z,7200.00
2022-09-28T22:22:59.230Z,7164.00
2022-09-28T22:28:06.404Z,7236.00
2022-09-28T22:33:13.716Z,7200.00
2022-09-28T22:38:21.025Z,7236.00
2022-09-28T22:43:28.136Z,6948.00
2022-09-28T22:48:35.373Z,7164.00
2022-09-28T22:53:42.697Z,7380.00
2022-09-28T22:58:49.880Z,7380.00
2022-09-28T23:03:57.135Z,7308.00
2022-09-28T23:09:04.434Z,6804.00
2022-09-28T23:14:11.574Z,7308.00
2022-09-28T23:19:18.936Z,7164.00
2022-09-28T23:24:26.079Z,7164.00
2022-09-28T23:29:33.256Z,6984.00
2022-09-28T23:34:40.458Z,6840.00
2022-09-28T23:39:47.687Z,6768.00
2022-09-28T23:44:54.820Z,6840.00
2022-09-28T23:50:02.071Z,6840.00
2022-09-28T23:55:09.310Z,6840.00
